CAN042 RJKI-RJFU
Flight info
| Callsign | CAN042 |
|---|---|
| Flight time | N/A |
| Altitude | 7000 |
| Route | DCT MOMPA DCT AKE/N0178F060 DCT FUBKI DCT |
| Aircraft | BE36/L-BDFGLORY/S |
Departure
| Time | 2026-05-04 16:08 |
|---|---|
| Airport | Kikai Airport (RJKI) |
Arrival
| Time | N/A |
|---|---|
| Airport | Nagasaki Airport (RJFU) |
| Time | Latitude | Longitude | Altitude | Speed | Heading |
|---|---|---|---|---|---|
| 2026-05-04 15:59 | 28.31994 | 129.92731 | 18 ft | 0 kts | 229° |
| 2026-05-04 16:06 | 28.32100 | 129.92679 | 16 ft | 18 kts | 277° |
| 2026-05-04 16:07 | 28.32015 | 129.92429 | 14 ft | 32 kts | 244° |
| 2026-05-04 16:07 | 28.32168 | 129.92818 | 27 ft | 101 kts | 68° |
| 2026-05-04 16:08 | 28.32569 | 129.93531 | 327 ft | 114 kts | 35° |
| 2026-05-04 16:08 | 28.35049 | 129.93204 | 1262 ft | 132 kts | 343° |
| 2026-05-04 16:09 | 28.36907 | 129.92852 | 1795 ft | 138 kts | 356° |
| 2026-05-04 16:09 | 28.38841 | 129.92778 | 2284 ft | 139 kts | 0° |
| 2026-05-04 16:10 | 28.40773 | 129.92760 | 2786 ft | 138 kts | 0° |
| 2026-05-04 16:11 | 28.43640 | 129.92741 | 3507 ft | 135 kts | 1° |
| 2026-05-04 16:11 | 28.44573 | 129.92732 | 3752 ft | 134 kts | 1° |
| 2026-05-04 16:12 | 28.47395 | 129.92729 | 4411 ft | 137 kts | 359° |
| 2026-05-04 16:12 | 28.50403 | 129.92718 | 4800 ft | 149 kts | 358° |
| 2026-05-04 16:13 | 28.52485 | 129.92706 | 5060 ft | 150 kts | 358° |
| 2026-05-04 16:13 | 28.54585 | 129.92694 | 5311 ft | 152 kts | 358° |
| 2026-05-04 16:14 | 28.56701 | 129.92686 | 5562 ft | 152 kts | 358° |
| 2026-05-04 16:14 | 28.58827 | 129.92676 | 5811 ft | 153 kts | 357° |
| 2026-05-04 16:15 | 28.61673 | 129.92662 | 6146 ft | 154 kts | 356° |
| 2026-05-04 16:16 | 28.63817 | 129.92652 | 6402 ft | 154 kts | 355° |
| 2026-05-04 16:16 | 28.67065 | 129.92636 | 6784 ft | 155 kts | 355° |
| 2026-05-04 16:17 | 28.69219 | 129.92625 | 6987 ft | 157 kts | 355° |
| 2026-05-04 16:18 | 28.72626 | 129.92615 | 7001 ft | 164 kts | 355° |
| 2026-05-04 16:18 | 28.73754 | 129.92609 | 7001 ft | 164 kts | 355° |
| 2026-05-04 16:19 | 28.77169 | 129.92594 | 7003 ft | 162 kts | 355° |
| 2026-05-04 16:19 | 28.79423 | 129.92581 | 7004 ft | 162 kts | 355° |
| 2026-05-04 16:20 | 28.82805 | 129.92564 | 7005 ft | 162 kts | 355° |
| 2026-05-04 16:20 | 28.85058 | 129.92554 | 7005 ft | 162 kts | 355° |
| 2026-05-04 16:21 | 28.88440 | 129.92541 | 7011 ft | 162 kts | 355° |
| 2026-05-04 16:22 | 28.90705 | 129.92528 | 7016 ft | 163 kts | 355° |
| 2026-05-04 16:22 | 28.94105 | 129.92511 | 7005 ft | 163 kts | 355° |
| 2026-05-04 16:23 | 28.97495 | 129.92495 | 7002 ft | 162 kts | 355° |
| 2026-05-04 16:24 | 29.01977 | 129.92474 | 7002 ft | 160 kts | 355° |
| 2026-05-04 16:25 | 29.04214 | 129.92463 | 7002 ft | 161 kts | 355° |
| 2026-05-04 16:26 | 29.08712 | 129.92441 | 7008 ft | 162 kts | 355° |
| 2026-05-04 16:26 | 29.12086 | 129.92424 | 7004 ft | 162 kts | 355° |
| 2026-05-04 16:27 | 29.14339 | 129.92415 | 7013 ft | 162 kts | 355° |
| 2026-05-04 16:28 | 29.17727 | 129.92398 | 7014 ft | 163 kts | 356° |
| 2026-05-04 16:28 | 29.21136 | 129.92381 | 7012 ft | 164 kts | 356° |
| 2026-05-04 16:29 | 29.25680 | 129.92361 | 7002 ft | 163 kts | 356° |
| 2026-05-04 16:30 | 29.29079 | 129.92344 | 7005 ft | 161 kts | 355° |
| 2026-05-04 16:31 | 29.31315 | 129.92334 | 7005 ft | 162 kts | 356° |
| 2026-05-04 16:31 | 29.34688 | 129.92313 | 7004 ft | 162 kts | 356° |
| 2026-05-04 16:32 | 29.38076 | 129.92302 | 7011 ft | 162 kts | 358° |
| 2026-05-04 16:33 | 29.40326 | 129.92294 | 7006 ft | 160 kts | 358° |
| 2026-05-04 16:33 | 29.42550 | 129.92283 | 7010 ft | 160 kts | 356° |
| 2026-05-04 16:34 | 29.44786 | 129.92267 | 7017 ft | 161 kts | 356° |
| 2026-05-04 16:34 | 29.45906 | 129.92264 | 7017 ft | 161 kts | 356° |
| 2026-05-04 16:35 | 29.49279 | 129.92245 | 7013 ft | 162 kts | 356° |
| 2026-05-04 16:35 | 29.52663 | 129.92228 | 7010 ft | 162 kts | 358° |
| 2026-05-04 16:36 | 29.53799 | 129.92221 | 7003 ft | 163 kts | 357° |
| 2026-05-04 16:36 | 29.56054 | 129.92211 | 7004 ft | 162 kts | 356° |
| 2026-05-04 16:37 | 29.58304 | 129.92200 | 7012 ft | 162 kts | 356° |
| 2026-05-04 16:37 | 29.59432 | 129.92194 | 7012 ft | 162 kts | 356° |
| 2026-05-04 16:37 | 29.61678 | 129.92184 | 7010 ft | 162 kts | 356° |
| 2026-05-04 16:38 | 29.63930 | 129.92173 | 7008 ft | 161 kts | 357° |
| 2026-05-04 16:39 | 29.67308 | 129.92156 | 7006 ft | 162 kts | 356° |
| 2026-05-04 16:39 | 29.69595 | 129.92145 | 6996 ft | 163 kts | 358° |
| 2026-05-04 16:40 | 29.71855 | 129.92135 | 6997 ft | 161 kts | 356° |
| 2026-05-04 16:40 | 29.74106 | 129.92128 | 6996 ft | 160 kts | 356° |
| 2026-05-04 16:41 | 29.76323 | 129.92109 | 6988 ft | 158 kts | 356° |
| 2026-05-04 16:41 | 29.79628 | 129.92098 | 6989 ft | 158 kts | 358° |
| 2026-05-04 16:42 | 29.82914 | 129.92083 | 6994 ft | 157 kts | 358° |
| 2026-05-04 16:43 | 29.85108 | 129.92071 | 7004 ft | 159 kts | 358° |
| 2026-05-04 16:43 | 29.87324 | 129.92054 | 7005 ft | 160 kts | 357° |
| 2026-05-04 16:43 | 29.88089 | 129.92049 | 7001 ft | 159 kts | 357° |
| 2026-05-04 16:44 | 29.92497 | 129.92037 | 7006 ft | 158 kts | 357° |
| 2026-05-04 16:45 | 29.94696 | 129.92024 | 7007 ft | 158 kts | 357° |
| 2026-05-04 16:46 | 29.98025 | 129.92008 | 7010 ft | 159 kts | 358° |
| 2026-05-04 16:46 | 30.00267 | 129.91990 | 6988 ft | 158 kts | 358° |
| 2026-05-04 16:47 | 30.02466 | 129.91983 | 6994 ft | 158 kts | 357° |
| 2026-05-04 16:47 | 30.04656 | 129.91974 | 7004 ft | 157 kts | 356° |
| 2026-05-04 16:48 | 30.07969 | 129.91956 | 7010 ft | 159 kts | 356° |
| 2026-05-04 16:48 | 30.09073 | 129.91951 | 7008 ft | 159 kts | 357° |
| 2026-05-04 16:49 | 30.11289 | 129.91939 | 7005 ft | 159 kts | 356° |
| 2026-05-04 16:49 | 30.13494 | 129.91934 | 6996 ft | 158 kts | 356° |
| 2026-05-04 16:50 | 30.15669 | 129.91923 | 6999 ft | 157 kts | 357° |
| 2026-05-04 16:50 | 30.17865 | 129.91908 | 6997 ft | 158 kts | 358° |
| 2026-05-04 16:51 | 30.20058 | 129.91899 | 7005 ft | 159 kts | 357° |
| 2026-05-04 16:51 | 30.21156 | 129.91894 | 7002 ft | 158 kts | 357° |
| 2026-05-04 16:51 | 30.23351 | 129.91883 | 6999 ft | 158 kts | 356° |
| 2026-05-04 16:52 | 30.25533 | 129.91873 | 7010 ft | 156 kts | 355° |
| 2026-05-04 16:52 | 30.26623 | 129.91871 | 7005 ft | 157 kts | 355° |
| 2026-05-04 16:53 | 30.28815 | 129.91862 | 7007 ft | 158 kts | 356° |
| 2026-05-04 16:53 | 30.32129 | 129.91841 | 7011 ft | 160 kts | 356° |
| 2026-05-04 16:54 | 30.33240 | 129.91832 | 7005 ft | 159 kts | 356° |
| 2026-05-04 16:55 | 30.37666 | 129.91813 | 7000 ft | 158 kts | 356° |
| 2026-05-04 16:55 | 30.39864 | 129.91800 | 7000 ft | 158 kts | 356° |
| 2026-05-04 16:56 | 30.42067 | 129.91792 | 7001 ft | 158 kts | 355° |
| 2026-05-04 16:56 | 30.45381 | 129.91772 | 7007 ft | 160 kts | 357° |
| 2026-05-04 16:57 | 30.46497 | 129.91767 | 7012 ft | 161 kts | 356° |
| 2026-05-04 16:57 | 30.48738 | 129.91756 | 7005 ft | 161 kts | 356° |
| 2026-05-04 16:58 | 30.52105 | 129.91743 | 7006 ft | 161 kts | 356° |
| 2026-05-04 16:58 | 30.53226 | 129.91736 | 7005 ft | 161 kts | 356° |
| 2026-05-04 16:59 | 30.55459 | 129.91726 | 7005 ft | 161 kts | 356° |
| 2026-05-04 17:00 | 30.59933 | 129.91709 | 7002 ft | 160 kts | 356° |
| 2026-05-04 17:00 | 30.63282 | 129.91690 | 7007 ft | 161 kts | 355° |
| 2026-05-04 17:01 | 30.65524 | 129.91678 | 7007 ft | 162 kts | 356° |
| 2026-05-04 17:01 | 30.67780 | 129.91665 | 7009 ft | 162 kts | 356° |
| 2026-05-04 17:02 | 30.70029 | 129.91656 | 7001 ft | 161 kts | 356° |
| 2026-05-04 17:02 | 30.72261 | 129.91644 | 6999 ft | 160 kts | 356° |
| 2026-05-04 17:03 | 30.73375 | 129.91638 | 6999 ft | 160 kts | 356° |
| 2026-05-04 17:03 | 30.74483 | 129.91631 | 7000 ft | 159 kts | 356° |
| 2026-05-04 17:03 | 30.76676 | 129.91618 | 7001 ft | 158 kts | 356° |
| 2026-05-04 17:04 | 30.78886 | 129.91612 | 7006 ft | 159 kts | 356° |
| 2026-05-04 17:04 | 30.81105 | 129.91600 | 7006 ft | 159 kts | 356° |
| 2026-05-04 17:05 | 30.83333 | 129.91583 | 7011 ft | 161 kts | 356° |
| 2026-05-04 17:05 | 30.85582 | 129.91755 | 7004 ft | 164 kts | 4° |
| 2026-05-04 17:06 | 30.87832 | 129.92093 | 7000 ft | 163 kts | 3° |
| 2026-05-04 17:06 | 30.88956 | 129.92255 | 7004 ft | 163 kts | 3° |
| 2026-05-04 17:07 | 30.91192 | 129.92580 | 6994 ft | 161 kts | 2° |
| 2026-05-04 17:07 | 30.91931 | 129.92688 | 6994 ft | 161 kts | 2° |
| 2026-05-04 17:07 | 30.93417 | 129.92906 | 6994 ft | 161 kts | 3° |
| 2026-05-04 17:07 | 30.94525 | 129.93070 | 6995 ft | 161 kts | 3° |
| 2026-05-04 17:08 | 30.95635 | 129.93234 | 6996 ft | 161 kts | 2° |
| 2026-05-04 17:08 | 30.97851 | 129.93559 | 6997 ft | 160 kts | 3° |
| 2026-05-04 17:08 | 30.98962 | 129.93723 | 6998 ft | 161 kts | 3° |
| 2026-05-04 17:09 | 31.00072 | 129.93888 | 6998 ft | 161 kts | 3° |
| 2026-05-04 17:09 | 31.01186 | 129.94052 | 6998 ft | 161 kts | 3° |
| 2026-05-04 17:09 | 31.02298 | 129.94216 | 6999 ft | 161 kts | 3° |
| 2026-05-04 17:10 | 31.04515 | 129.94542 | 6999 ft | 161 kts | 3° |
| 2026-05-04 17:10 | 31.07845 | 129.95035 | 6999 ft | 161 kts | 3° |
| 2026-05-04 17:11 | 31.08940 | 129.95196 | 6998 ft | 161 kts | 3° |
| 2026-05-04 17:11 | 31.10050 | 129.95362 | 6999 ft | 161 kts | 3° |
| 2026-05-04 17:11 | 31.12268 | 129.95687 | 6998 ft | 161 kts | 3° |
| 2026-05-04 17:12 | 31.13375 | 129.95851 | 6998 ft | 160 kts | 3° |
| 2026-05-04 17:12 | 31.15594 | 129.96181 | 6999 ft | 161 kts | 3° |
| 2026-05-04 17:13 | 31.18935 | 129.96682 | 6999 ft | 161 kts | 3° |
| 2026-05-04 17:14 | 31.22275 | 129.97175 | 7000 ft | 161 kts | 3° |
| 2026-05-04 17:14 | 31.23369 | 129.97339 | 7000 ft | 161 kts | 3° |
| 2026-05-04 17:14 | 31.25592 | 129.97669 | 7004 ft | 161 kts | 3° |
| 2026-05-04 17:15 | 31.26707 | 129.97834 | 7004 ft | 162 kts | 3° |
| 2026-05-04 17:15 | 31.28941 | 129.98166 | 7004 ft | 162 kts | 3° |
| 2026-05-04 17:16 | 31.31172 | 129.98500 | 7004 ft | 162 kts | 3° |
| 2026-05-04 17:16 | 31.34521 | 129.98997 | 7005 ft | 162 kts | 3° |
| 2026-05-04 17:17 | 31.35260 | 129.99107 | 7001 ft | 162 kts | 3° |
| 2026-05-04 17:17 | 31.38614 | 129.99605 | 7001 ft | 162 kts | 3° |
| 2026-05-04 17:18 | 31.39730 | 129.99771 | 7005 ft | 162 kts | 3° |